Time;durP1;ratioP1;P1;durP2;ratioP2;P2;SDS_P1;SDS_P2;PMS_P1;PMS_P2;Temp;Humidity;BMP_temperature;BMP_pressure;BME280_temperature;BME280_humidity;BME280_pressure;Samples;Min_cycle;Max_cycle;Signal;HPM_P1;HPM_P2
2021/05/06 00:01:29;;;;;;;2.00;0.70;;;6.40;99.90;;;;;;1886126;75;21517;-76
2021/05/06 00:04:19;;;;;;;0.68;0.68;;;6.50;99.90;;;;;;1882085;75;21480;-76
2021/05/06 00:06:56;;;;;;;2.33;1.32;;;6.50;99.90;;;;;;1884848;74;21060;-77
2021/05/06 00:09:33;;;;;;;1.00;0.60;;;6.50;99.90;;;;;;1881190;75;21061;-77
2021/05/06 00:14:28;;;;;;;0.93;0.60;;;6.50;99.90;;;;;;1887828;72;21145;-78
2021/05/06 00:33:03;;;;;;;1.50;0.65;;;6.60;99.90;;;;;;1880249;75;21109;-76
2021/05/06 00:35:32;;;;;;;0.50;0.50;;;6.60;99.90;;;;;;1896989;74;21563;-77
2021/05/06 00:38:19;;;;;;;0.80;0.78;;;6.70;99.90;;;;;;1891911;74;21104;-78
2021/05/06 00:41:11;;;;;;;1.00;0.85;;;6.60;99.90;;;;;;1897462;73;21549;-77
2021/05/06 00:56:51;;;;;;;1.10;1.00;;;6.50;99.90;;;;;;1893236;73;21092;-77
2021/05/06 00:59:28;;;;;;;1.30;0.85;;;6.40;99.90;;;;;;1887476;75;21100;-77
2021/05/06 01:02:02;;;;;;;1.45;0.90;;;6.40;99.90;;;;;;1891118;74;21189;-77
2021/05/06 01:09:24;;;;;;;1.62;0.88;;;6.30;99.90;;;;;;1889143;75;21185;-77
2021/05/06 01:11:57;;;;;;;0.82;0.82;;;6.30;99.90;;;;;;1878304;74;21574;-77
2021/05/06 01:14:21;;;;;;;1.20;0.90;;;6.30;99.90;;;;;;1885593;75;21116;-78
2021/05/06 01:16:47;;;;;;;3.33;0.90;;;6.20;99.90;;;;;;1892501;74;21166;-77
2021/05/06 01:19:13;;;;;;;0.80;0.80;;;6.20;99.90;;;;;;1887743;75;21100;-77
2021/05/06 01:21:39;;;;;;;4.20;1.12;;;6.20;99.90;;;;;;1875031;75;21066;-76
2021/05/06 01:24:05;;;;;;;1.12;0.80;;;6.30;99.90;;;;;;1882830;74;21353;-76
2021/05/06 01:26:35;;;;;;;1.02;0.90;;;6.20;99.90;;;;;;1884844;75;21214;-77
2021/05/06 01:29:02;;;;;;;4.45;1.02;;;6.20;99.90;;;;;;1889587;73;21508;-77
2021/05/06 01:31:31;;;;;;;0.98;0.70;;;6.30;99.90;;;;;;1893011;73;21101;-77
2021/05/06 01:34:06;;;;;;;1.00;0.82;;;6.30;99.90;;;;;;1885612;73;21136;-76
2021/05/06 01:36:31;;;;;;;1.60;1.10;;;6.20;99.90;;;;;;1881700;74;21124;-77
2021/05/06 01:49:25;;;;;;;1.10;0.62;;;6.20;99.90;;;;;;1831073;76;21082;-78
2021/05/06 01:59:51;;;;;;;0.78;0.75;;;6.30;99.90;;;;;;1883856;75;21084;-77
2021/05/06 02:02:13;;;;;;;2.83;1.05;;;6.40;99.90;;;;;;1881954;74;21084;-78
2021/05/06 02:04:39;;;;;;;2.47;1.10;;;6.40;99.90;;;;;;1891499;75;21068;-77
2021/05/06 02:07:07;;;;;;;0.88;0.88;;;6.40;99.90;;;;;;1886463;74;21531;-76
2021/05/06 02:09:33;;;;;;;3.15;1.12;;;6.40;99.90;;;;;;1895209;74;21484;-77
2021/05/06 02:11:59;;;;;;;3.40;1.00;;;6.50;99.90;;;;;;1886646;74;21488;-77
2021/05/06 02:14:26;;;;;;;0.88;0.75;;;6.50;99.90;;;;;;1891683;74;21088;-76
2021/05/06 02:16:52;;;;;;;7.45;0.68;;;6.40;99.90;;;;;;1896920;74;21135;-76
2021/05/06 02:19:28;;;;;;;0.65;0.65;;;6.50;99.90;;;;;;1889670;74;21043;-76
2021/05/06 02:21:46;;;;;;;2.30;0.75;;;6.60;99.90;;;;;;1900399;72;21060;-77
2021/05/06 02:24:12;;;;;;;1.10;1.00;;;6.50;99.90;;;;;;1903291;74;21054;-78
2021/05/06 02:26:38;;;;;;;1.00;0.90;;;6.50;99.90;;;;;;1891297;74;21147;-77
2021/05/06 02:29:04;;;;;;;1.67;1.00;;;6.50;99.90;;;;;;1881115;75;21154;-77
2021/05/06 02:31:30;;;;;;;4.10;1.42;;;6.40;99.90;;;;;;1895222;74;21087;-77
2021/05/06 02:33:56;;;;;;;3.20;1.15;;;6.50;99.90;;;;;;1893269;74;21079;-77
2021/05/06 02:36:23;;;;;;;1.05;0.80;;;6.50;99.90;;;;;;1886273;75;21214;-77
2021/05/06 02:38:49;;;;;;;3.17;0.95;;;6.40;99.90;;;;;;1906818;73;21043;-77
2021/05/06 02:41:15;;;;;;;2.45;1.02;;;6.40;99.90;;;;;;1884736;74;21091;-77
2021/05/06 02:43:43;;;;;;;5.55;1.17;;;6.40;99.90;;;;;;1889838;74;21146;-77
2021/05/06 02:46:09;;;;;;;6.10;1.32;;;6.40;99.90;;;;;;1895221;74;21079;-78
2021/05/06 02:48:35;;;;;;;1.37;0.90;;;6.30;99.90;;;;;;1890902;74;21087;-78
2021/05/06 02:51:02;;;;;;;3.27;0.90;;;6.20;99.90;;;;;;1892821;74;21097;-78
2021/05/06 02:53:34;;;;;;;1.82;1.00;;;6.20;99.90;;;;;;1888328;75;21135;-78
2021/05/06 02:56:06;;;;;;;4.20;1.20;;;6.30;99.90;;;;;;1894230;74;21521;-77
2021/05/06 03:03:48;;;;;;;1.70;0.95;;;6.40;99.90;;;;;;1890234;74;20137;-77
2021/05/06 03:06:18;;;;;;;3.98;0.90;;;6.40;99.90;;;;;;1877214;74;21199;-77
2021/05/06 03:08:43;;;;;;;2.58;0.90;;;6.50;99.90;;;;;;1888819;75;21113;-78
2021/05/06 03:24:54;;;;;;;0.80;0.70;;;6.60;99.90;;;;;;1897977;74;21080;-76
2021/05/06 03:27:19;;;;;;;2.05;1.02;;;6.60;99.90;;;;;;1885759;75;21128;-76
2021/05/06 03:32:39;;;;;;;3.15;0.90;;;6.70;99.90;;;;;;1842859;75;21137;-77
2021/05/06 03:43:28;;;;;;;2.25;0.90;;;7.00;99.90;;;;;;1887668;75;21097;-78
2021/05/06 04:15:57;;;;;;;2.17;1.30;;;6.30;99.90;;;;;;1891781;74;21262;-77
2021/05/06 04:18:05;;;;;;;4.00;1.10;;;6.30;99.90;;;;;;1885492;74;21162;-79
2021/05/06 04:36:53;;;;;;;1.20;1.00;;;6.10;99.90;;;;;;1896584;74;21173;-78
2021/05/06 04:39:15;;;;;;;2.08;1.27;;;6.10;99.90;;;;;;1885617;73;21512;-78
2021/05/06 04:41:54;;;;;;;2.33;1.10;;;6.10;99.90;;;;;;1894732;74;21103;-77
2021/05/06 04:54:44;;;;;;;1.32;1.20;;;6.10;99.90;;;;;;1893222;74;21096;-76
2021/05/06 04:57:56;;;;;;;2.72;1.20;;;6.10;99.90;;;;;;1886687;74;21088;-75
2021/05/06 05:04:59;;;;;;;2.15;1.10;;;6.30;99.90;;;;;;1887851;73;21096;-77
2021/05/06 05:07:30;;;;;;;2.92;1.40;;;6.40;99.90;;;;;;1880081;74;21091;-77
2021/05/06 05:10:01;;;;;;;2.00;1.22;;;6.40;99.90;;;;;;1886339;75;21315;-78
2021/05/06 05:12:39;;;;;;;5.10;1.57;;;6.50;99.90;;;;;;1893280;73;21100;-77
2021/05/06 05:20:35;;;;;;;3.77;1.40;;;6.80;99.90;;;;;;1883495;74;21504;-78
2021/05/06 05:27:56;;;;;;;3.00;1.27;;;6.80;99.90;;;;;;1888259;75;21113;-78
2021/05/06 05:30:25;;;;;;;1.77;1.22;;;6.80;99.90;;;;;;1889530;75;21064;-77
2021/05/06 05:32:50;;;;;;;2.47;1.42;;;6.90;99.90;;;;;;1901501;74;21107;-76
2021/05/06 05:35:31;;;;;;;3.12;1.57;;;6.90;99.90;;;;;;1880372;74;21070;-75
2021/05/06 05:37:48;;;;;;;1.95;1.00;;;7.00;99.90;;;;;;1887593;74;21083;-78
2021/05/06 05:40:31;;;;;;;6.37;1.60;;;7.00;99.90;;;;;;1880859;75;21125;-77
2021/05/06 05:56:08;;;;;;;4.05;1.87;;;7.30;99.90;;;;;;1889631;74;21121;-75
2021/05/06 05:58:34;;;;;;;3.55;1.82;;;7.40;99.90;;;;;;1885944;74;21154;-75
2021/05/06 06:01:00;;;;;;;9.15;1.47;;;7.50;99.90;;;;;;1896411;74;21089;-76
2021/05/06 06:03:26;;;;;;;3.50;1.27;;;7.40;99.90;;;;;;1881194;74;21519;-75
2021/05/06 06:05:53;;;;;;;3.47;1.27;;;7.40;99.90;;;;;;1890694;74;21549;-74
2021/05/06 06:08:23;;;;;;;2.25;1.55;;;7.40;99.90;;;;;;1892718;74;21157;-75
2021/05/06 06:10:47;;;;;;;2.42;1.27;;;7.30;99.90;;;;;;1888874;74;22583;-75
2021/05/06 06:13:13;;;;;;;2.83;1.32;;;7.20;99.90;;;;;;1902091;75;21206;-74
2021/05/06 06:16:01;;;;;;;1.98;1.52;;;7.20;99.90;;;;;;1882855;74;21150;-74
2021/05/06 06:23:27;;;;;;;6.40;1.65;;;7.20;99.90;;;;;;1850332;74;21132;-74
2021/05/06 06:25:54;;;;;;;3.60;1.50;;;7.20;99.90;;;;;;1894128;74;21057;-76
2021/05/06 06:28:20;;;;;;;2.40;1.62;;;7.10;99.90;;;;;;1886050;74;21468;-75
2021/05/06 06:30:46;;;;;;;2.17;1.52;;;7.10;99.90;;;;;;1886166;75;21542;-76
2021/05/06 06:33:12;;;;;;;6.10;1.85;;;7.10;99.90;;;;;;1892727;74;21145;-75
2021/05/06 06:35:38;;;;;;;3.58;1.32;;;7.10;99.90;;;;;;1891623;74;21145;-76
2021/05/06 06:38:04;;;;;;;3.12;1.95;;;7.10;99.90;;;;;;1890041;74;21162;-76
2021/05/06 06:40:31;;;;;;;3.60;1.92;;;7.10;99.90;;;;;;1895103;74;21143;-76
2021/05/06 06:42:57;;;;;;;4.40;1.67;;;7.20;99.90;;;;;;1905852;74;21083;-75
2021/05/06 06:45:23;;;;;;;3.30;1.55;;;7.40;99.90;;;;;;1891484;75;21074;-75
2021/05/06 06:47:49;;;;;;;8.15;1.35;;;7.50;99.90;;;;;;1891743;74;21154;-75
2021/05/06 06:50:15;;;;;;;3.35;1.50;;;7.60;99.90;;;;;;1896615;74;21092;-74
2021/05/06 06:52:41;;;;;;;5.35;1.15;;;7.70;99.90;;;;;;1881389;75;21057;-75
2021/05/06 06:55:07;;;;;;;9.90;1.42;;;7.80;99.90;;;;;;1891377;75;21107;-75
2021/05/06 06:57:34;;;;;;;4.08;1.47;;;7.80;99.90;;;;;;1890635;74;21527;-75
2021/05/06 07:00:00;;;;;;;5.00;2.08;;;7.90;99.90;;;;;;1896401;74;21066;-75
2021/05/06 07:02:26;;;;;;;3.77;1.37;;;7.90;99.90;;;;;;1890089;74;21153;-75
2021/05/06 07:04:53;;;;;;;1.30;1.00;;;7.90;99.90;;;;;;1900627;73;21178;-76
2021/05/06 07:07:19;;;;;;;3.50;1.32;;;7.90;99.90;;;;;;1886095;73;21193;-75
2021/05/06 07:09:45;;;;;;;2.70;1.50;;;8.10;99.90;;;;;;1892834;75;21084;-76
2021/05/06 07:12:11;;;;;;;1.77;1.25;;;8.10;99.90;;;;;;1887366;74;21512;-76
2021/05/06 07:14:38;;;;;;;2.80;0.78;;;8.20;99.90;;;;;;1895530;75;21080;-76
2021/05/06 07:17:04;;;;;;;1.85;0.78;;;8.20;99.90;;;;;;1888446;74;21092;-76
2021/05/06 07:19:30;;;;;;;9.10;1.30;;;8.20;99.90;;;;;;1887027;75;21604;-75
2021/05/06 07:21:56;;;;;;;0.98;0.88;;;8.30;99.90;;;;;;1897474;74;21552;-76
2021/05/06 07:24:22;;;;;;;1.62;1.00;;;8.30;99.90;;;;;;1890502;75;21150;-76
2021/05/06 07:26:48;;;;;;;10.58;1.45;;;8.40;99.90;;;;;;1893506;74;21147;-75
2021/05/06 07:29:18;;;;;;;6.53;1.57;;;8.50;99.90;;;;;;1891981;74;21053;-76
2021/05/06 07:31:42;;;;;;;2.35;1.15;;;8.60;99.90;;;;;;1887671;75;21549;-75
2021/05/06 07:34:08;;;;;;;4.28;1.27;;;8.70;99.90;;;;;;1895508;74;21495;-75
2021/05/06 07:36:35;;;;;;;3.12;1.22;;;8.70;99.90;;;;;;1892463;73;21070;-77
2021/05/06 07:39:01;;;;;;;8.13;1.80;;;8.90;99.90;;;;;;1899049;73;21067;-76
2021/05/06 07:41:27;;;;;;;8.80;1.52;;;8.80;99.90;;;;;;1890480;74;21150;-76
2021/05/06 07:43:53;;;;;;;2.52;0.90;;;9.00;99.90;;;;;;1886203;75;21121;-76
2021/05/06 07:46:19;;;;;;;9.13;1.10;;;9.10;99.90;;;;;;1892886;75;21087;-76
2021/05/06 07:48:45;;;;;;;2.62;1.20;;;9.20;99.90;;;;;;1892041;74;21079;-76
2021/05/06 07:51:11;;;;;;;2.30;1.00;;;9.40;99.90;;;;;;1891423;75;21226;-76
2021/05/06 07:53:48;;;;;;;6.00;1.92;;;9.70;99.90;;;;;;1885918;75;21079;-77
2021/05/06 07:56:11;;;;;;;2.55;1.00;;;9.80;99.90;;;;;;1891963;74;21083;-77
2021/05/06 07:58:38;;;;;;;2.35;1.25;;;10.00;99.90;;;;;;1897924;74;21057;-75
2021/05/06 08:01:04;;;;;;;1.87;1.20;;;10.10;99.90;;;;;;1886483;75;21092;-76
2021/05/06 08:03:30;;;;;;;3.60;1.30;;;10.20;99.90;;;;;;1896034;74;21140;-76
2021/05/06 08:05:57;;;;;;;3.08;1.30;;;10.10;99.90;;;;;;1893810;74;21516;-75
2021/05/06 08:08:23;;;;;;;6.62;1.40;;;10.20;99.90;;;;;;1892738;74;21081;-75
2021/05/06 08:10:49;;;;;;;8.50;1.55;;;10.10;99.90;;;;;;1882112;75;21060;-75
2021/05/06 08:13:15;;;;;;;6.17;1.40;;;10.10;99.90;;;;;;1896646;74;21158;-75
2021/05/06 08:15:41;;;;;;;2.92;1.17;;;10.20;99.90;;;;;;1888525;73;21082;-75
2021/05/06 08:18:09;;;;;;;3.87;1.12;;;10.20;99.90;;;;;;1880577;74;21150;-75
2021/05/06 08:20:35;;;;;;;5.17;1.42;;;10.20;99.90;;;;;;1886399;74;21524;-74
2021/05/06 08:23:03;;;;;;;4.00;1.30;;;10.00;99.90;;;;;;1886078;75;21506;-74
2021/05/06 08:25:29;;;;;;;3.12;1.00;;;10.10;99.90;;;;;;1894849;74;21127;-74
2021/05/06 08:27:55;;;;;;;2.62;1.02;;;10.20;99.90;;;;;;1891258;74;21088;-75
2021/05/06 08:30:21;;;;;;;2.02;1.00;;;10.40;99.90;;;;;;1885025;75;21206;-75
2021/05/06 08:32:47;;;;;;;3.50;1.05;;;10.50;99.90;;;;;;1893870;73;21215;-75
2021/05/06 08:35:14;;;;;;;4.67;1.07;;;10.50;99.90;;;;;;1893348;74;21039;-75
2021/05/06 08:37:40;;;;;;;2.08;1.10;;;10.60;99.90;;;;;;1883007;74;21162;-75
2021/05/06 08:40:06;;;;;;;5.97;0.90;;;10.50;99.90;;;;;;1889906;74;21569;-75
2021/05/06 08:42:32;;;;;;;3.15;1.20;;;10.40;99.90;;;;;;1872922;74;21348;-74
2021/05/06 08:45:01;;;;;;;5.55;0.80;;;10.50;99.90;;;;;;1879337;75;21131;-75
2021/05/06 08:47:27;;;;;;;0.60;0.60;;;10.60;99.90;;;;;;1891162;74;21109;-75
2021/05/06 08:49:56;;;;;;;3.52;0.90;;;10.60;99.90;;;;;;1894324;73;21043;-75
2021/05/06 08:52:21;;;;;;;5.83;1.42;;;10.80;99.90;;;;;;1889287;74;21117;-75
2021/05/06 08:54:47;;;;;;;1.55;0.93;;;10.60;99.90;;;;;;1887493;75;21224;-74
2021/05/06 08:57:14;;;;;;;7.72;1.10;;;10.80;99.90;;;;;;1887921;75;21154;-75
2021/05/06 08:59:40;;;;;;;5.90;0.82;;;10.90;99.90;;;;;;1890678;75;21088;-74
2021/05/06 09:02:06;;;;;;;1.40;0.68;;;10.80;99.90;;;;;;1877922;74;21153;-73
2021/05/06 09:04:32;;;;;;;4.37;0.93;;;10.60;99.90;;;;;;1887882;74;21150;-75
2021/05/06 09:06:58;;;;;;;2.08;0.80;;;10.50;99.90;;;;;;1895947;73;21557;-73
2021/05/06 09:09:24;;;;;;;4.08;1.67;;;10.40;99.90;;;;;;1894069;73;21083;-72
2021/05/06 09:11:51;;;;;;;3.08;1.20;;;10.40;99.90;;;;;;1887468;74;21130;-73
2021/05/06 09:14:17;;;;;;;4.58;1.00;;;10.60;99.90;;;;;;1885764;74;21053;-73
2021/05/06 09:16:43;;;;;;;5.30;1.37;;;10.70;99.90;;;;;;1893379;74;21075;-71
2021/05/06 09:19:09;;;;;;;2.65;0.80;;;10.80;99.90;;;;;;1886706;74;21074;-73
2021/05/06 09:21:36;;;;;;;3.40;1.10;;;10.80;99.90;;;;;;1894486;74;21132;-75
2021/05/06 09:24:03;;;;;;;7.42;1.10;;;10.80;99.90;;;;;;1886138;74;21161;-77
2021/05/06 09:26:29;;;;;;;6.53;1.87;;;10.60;99.90;;;;;;1896556;74;21078;-73
2021/05/06 09:28:55;;;;;;;4.08;1.20;;;10.30;99.90;;;;;;1889598;74;21149;-75
2021/05/06 09:31:21;;;;;;;2.67;0.90;;;10.30;99.90;;;;;;1897061;74;21067;-76
2021/05/06 09:33:47;;;;;;;1.15;0.68;;;10.40;99.90;;;;;;1888513;74;21060;-74
2021/05/06 09:36:14;;;;;;;1.52;0.98;;;10.40;99.90;;;;;;1885650;75;21084;-75
2021/05/06 09:38:42;;;;;;;1.82;0.93;;;10.30;99.90;;;;;;1887434;74;21296;-74
2021/05/06 09:41:08;;;;;;;4.83;1.05;;;10.20;99.90;;;;;;1899763;74;21202;-76
2021/05/06 09:43:38;;;;;;;8.13;1.10;;;10.00;99.90;;;;;;1890875;75;21071;-75
2021/05/06 09:46:04;;;;;;;8.18;1.42;;;9.90;99.90;;;;;;1895596;74;21506;-75
2021/05/06 09:48:30;;;;;;;1.92;0.98;;;9.80;99.90;;;;;;1897113;74;21141;-75
2021/05/06 09:50:56;;;;;;;3.85;1.35;;;9.70;99.90;;;;;;1890910;75;21044;-75
2021/05/06 09:53:25;;;;;;;5.25;2.33;;;9.60;99.90;;;;;;1888462;75;21149;-74
2021/05/06 09:55:50;;;;;;;3.92;1.80;;;9.60;99.90;;;;;;1897878;73;21121;-76
2021/05/06 09:58:16;;;;;;;5.45;1.40;;;9.50;99.90;;;;;;1894619;74;21070;-76
2021/05/06 10:00:42;;;;;;;7.70;1.45;;;9.60;99.90;;;;;;1888131;74;21100;-76
2021/05/06 10:03:08;;;;;;;5.20;1.60;;;9.70;99.90;;;;;;1886913;73;21092;-76
2021/05/06 10:05:34;;;;;;;2.30;1.10;;;9.70;99.90;;;;;;1886019;74;21150;-75
2021/05/06 10:08:01;;;;;;;4.95;1.57;;;9.80;99.90;;;;;;1885893;75;21170;-75
2021/05/06 10:10:27;;;;;;;5.00;1.95;;;9.70;99.90;;;;;;1893162;73;21091;-76
2021/05/06 10:12:53;;;;;;;3.27;1.75;;;9.80;99.90;;;;;;1894156;74;21092;-76
2021/05/06 10:15:19;;;;;;;5.55;1.87;;;9.70;99.90;;;;;;1886737;75;21095;-75
2021/05/06 10:17:47;;;;;;;5.10;2.02;;;9.60;99.90;;;;;;1887196;75;21065;-76
2021/05/06 10:20:14;;;;;;;3.83;1.27;;;9.60;99.90;;;;;;1896380;75;21132;-76
2021/05/06 10:22:40;;;;;;;2.75;1.45;;;9.60;99.90;;;;;;1888181;74;21154;-75
2021/05/06 10:25:06;;;;;;;3.60;1.47;;;9.60;99.90;;;;;;1891595;74;21462;-73
2021/05/06 10:27:32;;;;;;;2.37;1.10;;;9.70;99.90;;;;;;1897985;73;21597;-75
2021/05/06 10:29:59;;;;;;;2.85;1.00;;;9.60;99.90;;;;;;1892404;73;21507;-74
2021/05/06 10:32:25;;;;;;;5.67;1.02;;;9.70;99.90;;;;;;1893286;74;21091;-74
2021/05/06 10:34:54;;;;;;;3.40;1.10;;;9.70;99.90;;;;;;1878285;74;21095;-75
2021/05/06 10:37:19;;;;;;;4.42;1.45;;;9.60;99.90;;;;;;1892457;73;21688;-74
2021/05/06 10:39:45;;;;;;;1.32;0.90;;;9.80;99.90;;;;;;1898801;73;21488;-74
2021/05/06 10:42:11;;;;;;;1.27;0.57;;;9.80;99.90;;;;;;1887815;74;21147;-74
2021/05/06 10:44:37;;;;;;;4.00;1.77;;;9.80;99.90;;;;;;1888232;74;21084;-74
2021/05/06 10:47:04;;;;;;;0.93;0.60;;;9.90;99.90;;;;;;1884462;74;21133;-74
2021/05/06 10:49:30;;;;;;;2.42;0.85;;;9.80;99.90;;;;;;1892537;75;21490;-74
2021/05/06 10:51:56;;;;;;;3.60;0.90;;;9.80;99.90;;;;;;1905766;73;21039;-75
2021/05/06 10:54:22;;;;;;;1.77;0.75;;;9.90;99.90;;;;;;1891364;74;21083;-74
2021/05/06 10:56:49;;;;;;;0.75;0.75;;;9.90;99.90;;;;;;1890064;74;21141;-74
2021/05/06 10:59:15;;;;;;;1.00;0.90;;;10.00;99.90;;;;;;1905342;73;21552;-73
2021/05/06 11:01:42;;;;;;;1.50;0.70;;;9.90;99.90;;;;;;1893436;74;21517;-73
2021/05/06 11:04:08;;;;;;;5.62;0.80;;;9.90;99.90;;;;;;1896038;75;21075;-75
2021/05/06 11:06:34;;;;;;;1.72;0.60;;;10.00;99.90;;;;;;1890374;74;21088;-75
2021/05/06 11:09:00;;;;;;;2.20;0.55;;;10.00;99.90;;;;;;1887134;75;21658;-75
2021/05/06 11:11:26;;;;;;;1.85;0.75;;;10.10;99.90;;;;;;1882504;75;21189;-75
2021/05/06 11:13:53;;;;;;;1.32;0.60;;;10.20;99.90;;;;;;1886761;74;21082;-75
2021/05/06 11:16:19;;;;;;;1.12;0.62;;;10.10;99.90;;;;;;1892393;74;21298;-73
2021/05/06 11:18:46;;;;;;;1.22;0.65;;;10.20;99.90;;;;;;1886710;75;21153;-75
2021/05/06 11:21:13;;;;;;;1.07;0.82;;;10.10;99.90;;;;;;1886532;75;21153;-74
2021/05/06 11:23:39;;;;;;;2.55;0.80;;;10.20;99.90;;;;;;1893655;74;21192;-75
2021/05/06 11:26:05;;;;;;;1.32;0.62;;;10.30;99.90;;;;;;1888677;74;21091;-74
2021/05/06 11:28:31;;;;;;;1.77;0.47;;;10.40;99.90;;;;;;1909769;74;21073;-74
2021/05/06 11:30:58;;;;;;;5.83;0.65;;;10.40;99.90;;;;;;1891607;74;21070;-75
2021/05/06 11:33:28;;;;;;;0.72;0.40;;;10.50;99.90;;;;;;1896691;74;21047;-74
2021/05/06 11:36:04;;;;;;;1.22;0.65;;;10.50;99.90;;;;;;1879249;75;21153;-74
2021/05/06 11:38:22;;;;;;;0.85;0.55;;;10.60;99.90;;;;;;1889603;74;21418;-75
2021/05/06 11:40:48;;;;;;;4.92;0.42;;;10.50;99.90;;;;;;1894886;74;21490;-75
2021/05/06 11:43:14;;;;;;;9.23;0.80;;;10.60;99.90;;;;;;1889166;74;21559;-75
2021/05/06 11:45:40;;;;;;;0.50;0.40;;;10.50;99.90;;;;;;1888574;75;21514;-75
2021/05/06 11:48:06;;;;;;;0.37;0.30;;;10.50;99.90;;;;;;1896597;73;21083;-75
2021/05/06 11:50:33;;;;;;;0.80;0.47;;;10.60;99.90;;;;;;1885599;73;21146;-75
2021/05/06 11:53:00;;;;;;;0.50;0.50;;;10.60;99.90;;;;;;1899882;73;21088;-75
2021/05/06 11:55:26;;;;;;;0.62;0.45;;;10.80;99.90;;;;;;1899583;74;21067;-76
2021/05/06 11:57:52;;;;;;;1.40;0.65;;;11.00;99.90;;;;;;1902936;74;21048;-74
2021/05/06 12:00:18;;;;;;;4.40;1.07;;;11.00;99.90;;;;;;1887788;74;21150;-75
2021/05/06 12:02:44;;;;;;;1.62;0.68;;;11.10;99.90;;;;;;1896879;73;21142;-75
2021/05/06 12:05:11;;;;;;;2.05;0.53;;;11.20;99.90;;;;;;1891354;74;21071;-76
2021/05/06 12:07:38;;;;;;;0.78;0.53;;;11.00;99.90;;;;;;1899542;73;21152;-76
2021/05/06 12:10:04;;;;;;;1.12;0.30;;;11.00;99.90;;;;;;1892881;74;21048;-75
2021/05/06 12:12:30;;;;;;;2.55;0.40;;;11.10;99.90;;;;;;1885950;75;21087;-75
2021/05/06 12:14:56;;;;;;;0.30;0.30;;;11.00;99.90;;;;;;1890464;74;21170;-75
2021/05/06 12:17:22;;;;;;;0.33;0.33;;;10.90;99.90;;;;;;1897169;73;21078;-76
2021/05/06 12:19:48;;;;;;;4.12;0.40;;;10.90;99.90;;;;;;1891036;75;21057;-76
2021/05/06 12:22:14;;;;;;;0.88;0.50;;;10.90;99.90;;;;;;1891986;74;21091;-76
2021/05/06 12:24:42;;;;;;;1.75;0.60;;;10.90;99.90;;;;;;1905347;73;21145;-75
2021/05/06 12:27:08;;;;;;;0.95;0.42;;;10.90;99.90;;;;;;1877945;75;21091;-76
2021/05/06 12:29:34;;;;;;;0.68;0.53;;;10.80;99.90;;;;;;1880485;74;21044;-75
2021/05/06 12:32:00;;;;;;;0.40;0.40;;;10.70;99.90;;;;;;1885949;75;21142;-76
2021/05/06 12:34:27;;;;;;;0.68;0.60;;;10.60;99.90;;;;;;1884157;75;21178;-76
2021/05/06 12:36:53;;;;;;;1.27;0.50;;;10.80;99.90;;;;;;1894500;74;21214;-76
2021/05/06 12:39:19;;;;;;;0.33;0.33;;;10.90;99.90;;;;;;1883788;74;21064;-76
2021/05/06 12:41:45;;;;;;;1.52;0.57;;;10.80;99.90;;;;;;1891714;73;21053;-76
2021/05/06 12:44:11;;;;;;;9.00;0.70;;;10.80;99.90;;;;;;1865433;75;21087;-75
2021/05/06 12:46:37;;;;;;;2.20;0.70;;;10.70;99.90;;;;;;1889127;74;21088;-75
2021/05/06 12:49:05;;;;;;;1.98;0.57;;;10.70;99.90;;;;;;1884694;74;21088;-75
2021/05/06 12:51:31;;;;;;;1.37;0.50;;;10.70;99.90;;;;;;1885681;75;21084;-75
2021/05/06 12:53:57;;;;;;;1.35;0.70;;;10.70;99.90;;;;;;1887631;74;21092;-76
2021/05/06 12:56:23;;;;;;;1.30;0.62;;;10.60;99.90;;;;;;1882498;74;21573;-76
2021/05/06 12:58:49;;;;;;;1.25;0.75;;;10.70;99.90;;;;;;1895662;74;21490;-74
2021/05/06 13:01:16;;;;;;;0.62;0.57;;;10.50;99.90;;;;;;1885966;75;21078;-74
2021/05/06 13:03:45;;;;;;;1.52;1.12;;;10.60;99.90;;;;;;1891067;75;21079;-74
2021/05/06 13:06:11;;;;;;;0.50;0.50;;;10.60;99.90;;;;;;1901625;74;21043;-74
2021/05/06 13:08:37;;;;;;;1.00;0.80;;;10.20;99.90;;;;;;1880704;74;21585;-74
2021/05/06 13:11:03;;;;;;;1.67;0.70;;;10.10;99.90;;;;;;1888350;75;21092;-75
2021/05/06 13:13:29;;;;;;;0.80;0.65;;;10.10;99.90;;;;;;1894420;73;21649;-75
2021/05/06 13:15:55;;;;;;;2.35;0.80;;;10.10;99.90;;;;;;1887013;74;21688;-75
2021/05/06 13:18:22;;;;;;;1.77;1.02;;;10.10;99.90;;;;;;1890981;75;21153;-75
2021/05/06 13:20:48;;;;;;;2.10;0.60;;;10.20;99.90;;;;;;1885814;74;21158;-76
2021/05/06 13:23:14;;;;;;;1.95;0.82;;;10.40;99.90;;;;;;1898988;75;21067;-74
2021/05/06 13:25:40;;;;;;;2.33;1.07;;;10.40;99.90;;;;;;1896405;74;21056;-74
2021/05/06 13:28:07;;;;;;;0.85;0.80;;;10.40;99.90;;;;;;1889569;74;21154;-74
2021/05/06 13:30:33;;;;;;;1.45;0.80;;;10.40;99.90;;;;;;1893991;74;21084;-75
2021/05/06 13:32:59;;;;;;;1.65;0.80;;;10.30;99.90;;;;;;1887884;74;21092;-73
2021/05/06 13:35:25;;;;;;;2.90;1.20;;;10.20;99.90;;;;;;1885744;75;21061;-73
2021/05/06 13:37:53;;;;;;;2.27;1.07;;;10.10;99.90;;;;;;1888922;74;21150;-73
2021/05/06 13:40:19;;;;;;;1.85;0.93;;;10.00;99.90;;;;;;1886343;74;21202;-73
2021/05/06 13:42:45;;;;;;;4.12;1.20;;;9.90;99.90;;;;;;1890927;75;21082;-73
2021/05/06 13:45:11;;;;;;;1.25;1.00;;;9.90;99.90;;;;;;1892229;74;21138;-73
2021/05/06 13:47:37;;;;;;;1.42;0.95;;;9.90;99.90;;;;;;1907180;74;21170;-73
2021/05/06 13:50:03;;;;;;;1.72;1.20;;;9.70;99.90;;;;;;1883504;74;21228;-73
2021/05/06 13:52:29;;;;;;;2.00;1.10;;;9.70;99.90;;;;;;1896032;75;21132;-72
2021/05/06 13:54:57;;;;;;;5.15;1.70;;;9.80;99.90;;;;;;1882359;74;21103;-72
2021/05/06 13:57:23;;;;;;;1.82;1.00;;;9.40;99.90;;;;;;1887036;74;21096;-72
2021/05/06 13:59:49;;;;;;;2.17;0.78;;;9.40;99.90;;;;;;1887651;74;21181;-71
2021/05/06 14:02:18;;;;;;;2.95;0.70;;;9.20;99.90;;;;;;1896169;74;21052;-72
2021/05/06 14:04:43;;;;;;;3.40;1.00;;;9.40;99.90;;;;;;1890717;73;21179;-71
2021/05/06 14:07:09;;;;;;;2.30;1.30;;;9.50;99.90;;;;;;1888473;74;21185;-72
2021/05/06 14:09:35;;;;;;;1.25;1.12;;;9.60;99.90;;;;;;1894728;74;21225;-73
2021/05/06 14:12:01;;;;;;;1.27;0.90;;;9.50;99.90;;;;;;1881904;74;21187;-74
2021/05/06 14:14:27;;;;;;;1.40;1.30;;;9.50;99.90;;;;;;1898857;73;21086;-73
2021/05/06 14:16:53;;;;;;;1.00;0.90;;;9.60;99.90;;;;;;1889600;73;21075;-73
2021/05/06 14:19:20;;;;;;;3.72;1.42;;;9.80;99.90;;;;;;1890745;74;21507;-74
2021/05/06 14:21:48;;;;;;;3.47;1.27;;;9.90;99.90;;;;;;1893196;73;21072;-74
2021/05/06 14:24:14;;;;;;;7.00;1.57;;;10.00;99.90;;;;;;1907401;74;21595;-74
2021/05/06 14:26:41;;;;;;;1.70;1.10;;;10.20;99.90;;;;;;1894288;74;21082;-76
2021/05/06 14:29:08;;;;;;;3.02;1.72;;;10.10;99.90;;;;;;1886146;75;21204;-76
2021/05/06 14:31:34;;;;;;;1.50;1.07;;;10.20;99.90;;;;;;1891189;74;21084;-76
2021/05/06 14:34:00;;;;;;;1.42;1.05;;;10.20;99.90;;;;;;1891503;74;21142;-76
2021/05/06 14:36:26;;;;;;;3.47;1.17;;;10.10;99.90;;;;;;1895703;73;21162;-76
2021/05/06 14:38:54;;;;;;;2.58;1.30;;;10.10;99.90;;;;;;1886314;75;21259;-76
2021/05/06 14:41:21;;;;;;;1.90;0.95;;;10.10;99.90;;;;;;1905023;73;21078;-76
2021/05/06 14:43:47;;;;;;;1.15;0.78;;;10.10;99.90;;;;;;1894988;74;21108;-77
2021/05/06 14:46:13;;;;;;;1.12;0.80;;;10.00;99.90;;;;;;1893707;74;21136;-76
2021/05/06 14:48:39;;;;;;;3.22;1.17;;;10.10;99.90;;;;;;1886875;75;21208;-76
2021/05/06 14:51:06;;;;;;;7.97;1.25;;;10.00;99.90;;;;;;1900550;73;21088;-76
2021/05/06 14:53:32;;;;;;;2.30;1.02;;;9.70;99.90;;;;;;1888082;75;21064;-77
2021/05/06 14:55:58;;;;;;;2.60;1.30;;;9.80;99.90;;;;;;1895127;73;21162;-78
2021/05/06 14:58:28;;;;;;;4.42;1.02;;;9.90;99.90;;;;;;1895675;74;21088;-78
2021/05/06 15:00:52;;;;;;;5.30;0.80;;;9.90;99.90;;;;;;1885047;73;21124;-76
2021/05/06 15:03:18;;;;;;;1.87;0.80;;;9.90;99.90;;;;;;1894013;74;21154;-78
2021/05/06 15:05:44;;;;;;;1.50;0.85;;;9.90;99.90;;;;;;1888842;74;21189;-76
2021/05/06 15:08:10;;;;;;;0.72;0.72;;;9.50;99.90;;;;;;1891699;74;21155;-89
2021/05/06 15:10:36;;;;;;;1.32;0.72;;;9.60;99.90;;;;;;1906328;74;21274;-75
2021/05/06 15:13:02;;;;;;;1.72;0.82;;;9.80;99.90;;;;;;1888543;74;21158;-77
2021/05/06 15:15:28;;;;;;;3.60;1.10;;;9.90;99.90;;;;;;1894202;74;21074;-76
2021/05/06 15:17:57;;;;;;;2.35;0.90;;;10.10;99.90;;;;;;1886608;73;21121;-78
2021/05/06 15:20:23;;;;;;;2.72;1.22;;;10.20;99.90;;;;;;1886700;74;21117;-77
2021/05/06 15:22:49;;;;;;;6.17;0.68;;;10.20;99.90;;;;;;1896403;74;21493;-77
2021/05/06 15:25:15;;;;;;;1.25;1.00;;;10.20;99.90;;;;;;1903692;74;21527;-76
2021/05/06 15:27:45;;;;;;;3.58;0.90;;;10.10;99.90;;;;;;1888784;74;21076;-76
2021/05/06 15:30:11;;;;;;;1.60;0.80;;;10.20;99.90;;;;;;1886662;75;21516;-80
2021/05/06 15:32:37;;;;;;;1.50;0.80;;;10.30;99.90;;;;;;1889948;75;21075;-79
2021/05/06 15:35:05;;;;;;;1.10;0.90;;;10.10;99.90;;;;;;1894948;74;21149;-79
2021/05/06 15:37:31;;;;;;;2.25;0.82;;;10.20;99.90;;;;;;1890829;74;21158;-78
2021/05/06 15:39:57;;;;;;;3.30;0.78;;;10.00;99.90;;;;;;1886645;75;21100;-79
2021/05/06 15:42:23;;;;;;;3.27;1.10;;;9.90;99.90;;;;;;1895641;74;21079;-76
2021/05/06 15:44:49;;;;;;;1.20;1.07;;;9.90;99.90;;;;;;1905344;74;21531;-76
2021/05/06 15:47:16;;;;;;;2.87;1.20;;;9.90;99.90;;;;;;1891045;74;21564;-80